Time;durP1;ratioP1;P1;durP2;ratioP2;P2;SDS_P1;SDS_P2;PMS_P1;PMS_P2;Temp;Humidity;BMP_temperature;BMP_pressure;BME280_temperature;BME280_humidity;BME280_pressure;Samples;Min_cycle;Max_cycle;Signal;HPM_P1;HPM_P2
2021/11/17 02:29:09;;;;;;;7.43;5.03;;;;;;;;;;10340230;28;20054;-83
2021/11/17 02:34:43;;;;;;;8.02;5.20;;;;;;;;;;10347265;28;20034;-84
2021/11/17 02:40:01;;;;;;;7.65;5.70;;;;;;;;;;10313956;28;20083;-85
2021/11/17 02:45:33;;;;;;;8.05;4.93;;;;;;;;;;10339186;28;20030;-84
2021/11/17 02:51:09;;;;;;;6.50;4.88;;;;;;;;;;10334691;28;20046;-84
2021/11/17 02:56:31;;;;;;;9.02;5.25;;;;;;;;;;10345407;28;20046;-84
2021/11/17 03:02:10;;;;;;;6.45;5.00;;;;;;;;;;10330073;28;20105;-84
2021/11/17 03:07:38;;;;;;;5.93;5.20;;;;;;;;;;10344331;28;20038;-85
2021/11/17 03:12:59;;;;;;;5.82;4.93;;;;;;;;;;10345711;28;20098;-84
2021/11/17 03:18:42;;;;;;;7.30;4.93;;;;;;;;;;10344792;28;20113;-84
2021/11/17 03:24:03;;;;;;;6.85;5.15;;;;;;;;;;10344350;28;20057;-85
2021/11/17 03:29:09;;;;;;;5.75;4.57;;;;;;;;;;10340746;28;20047;-84
2021/11/17 03:34:34;;;;;;;6.63;4.63;;;;;;;;;;10354744;28;20100;-83
2021/11/17 03:39:51;;;;;;;13.38;5.50;;;;;;;;;;10350260;28;20042;-83
2021/11/17 03:44:55;;;;;;;11.25;5.35;;;;;;;;;;10345372;28;20065;-83
2021/11/17 03:50:16;;;;;;;6.50;5.40;;;;;;;;;;10351559;28;20049;-84
2021/11/17 03:55:30;;;;;;;5.93;4.85;;;;;;;;;;10354426;28;20433;-84
2021/11/17 04:00:34;;;;;;;5.82;4.70;;;;;;;;;;10351161;28;20046;-84
2021/11/17 04:05:34;;;;;;;7.22;5.35;;;;;;;;;;10352961;28;20034;-83
2021/11/17 04:10:54;;;;;;;6.30;4.37;;;;;;;;;;10338665;28;20042;-83
2021/11/17 04:16:07;;;;;;;7.22;4.75;;;;;;;;;;10338782;28;20094;-83
2021/11/17 04:21:26;;;;;;;6.32;4.65;;;;;;;;;;10351720;28;20030;-83
2021/11/17 04:26:42;;;;;;;5.80;4.65;;;;;;;;;;10339699;28;20401;-83
2021/11/17 04:31:59;;;;;;;7.03;4.78;;;;;;;;;;10379361;28;20134;-82
2021/11/17 04:37:24;;;;;;;4.90;3.97;;;;;;;;;;10339864;28;20069;-82
2021/11/17 04:42:47;;;;;;;6.55;4.60;;;;;;;;;;10340473;28;20069;-81
2021/11/17 04:48:23;;;;;;;4.88;4.00;;;;;;;;;;10340147;28;20062;-84
2021/11/17 04:53:31;;;;;;;6.13;4.68;;;;;;;;;;10325875;28;20046;-83
2021/11/17 04:58:56;;;;;;;7.18;3.92;;;;;;;;;;10348928;28;20038;-84
2021/11/17 05:04:26;;;;;;;5.70;4.05;;;;;;;;;;10346845;28;20058;-83
2021/11/17 05:09:36;;;;;;;6.65;4.68;;;;;;;;;;10338178;28;20073;-84
2021/11/17 05:15:00;;;;;;;5.10;4.45;;;;;;;;;;10331750;28;20026;-83
2021/11/17 05:20:06;;;;;;;7.15;4.63;;;;;;;;;;10331096;28;20077;-83
2021/11/17 05:25:28;;;;;;;4.85;4.35;;;;;;;;;;10339087;28;20062;-82
2021/11/17 05:30:38;;;;;;;7.28;4.45;;;;;;;;;;10336695;28;20045;-82
2021/11/17 05:35:51;;;;;;;5.20;4.68;;;;;;;;;;10331866;28;20058;-82
2021/11/17 05:40:54;;;;;;;6.40;4.15;;;;;;;;;;10337989;28;20482;-82
2021/11/17 05:45:57;;;;;;;7.32;4.57;;;;;;;;;;10338499;28;20030;-83
2021/11/17 05:51:25;;;;;;;5.63;4.40;;;;;;;;;;10344568;28;20034;-83
2021/11/17 05:56:40;;;;;;;6.63;4.28;;;;;;;;;;10345991;28;20050;-81
2021/11/17 06:02:04;;;;;;;6.05;4.38;;;;;;;;;;10347280;28;20034;-82
2021/11/17 06:07:04;;;;;;;7.10;4.18;;;;;;;;;;10336852;28;20095;-82
2021/11/17 06:12:07;;;;;;;5.93;4.35;;;;;;;;;;10346884;28;20040;-82
2021/11/17 06:17:19;;;;;;;5.38;4.60;;;;;;;;;;10345378;28;20041;-83
2021/11/17 06:22:23;;;;;;;5.50;4.10;;;;;;;;;;10346569;28;20429;-82
2021/11/17 06:27:28;;;;;;;5.75;4.45;;;;;;;;;;10345514;28;20082;-82
2021/11/17 06:32:29;;;;;;;4.95;4.30;;;;;;;;;;10346909;28;20039;-82
2021/11/17 06:37:30;;;;;;;5.15;4.00;;;;;;;;;;10347207;28;20030;-82
2021/11/17 06:42:49;;;;;;;4.75;4.00;;;;;;;;;;10346822;28;20061;-83
2021/11/17 06:47:51;;;;;;;4.55;3.90;;;;;;;;;;10346847;28;20490;-83
2021/11/17 06:52:51;;;;;;;5.55;4.10;;;;;;;;;;10346844;28;20038;-82
2021/11/17 06:57:52;;;;;;;7.10;5.40;;;;;;;;;;10341537;28;20034;-80
2021/11/17 07:02:53;;;;;;;12.63;6.22;;;;;;;;;;10335295;28;20169;-80
2021/11/17 07:07:55;;;;;;;13.60;7.95;;;;;;;;;;10344044;28;20027;-79
2021/11/17 07:12:55;;;;;;;13.70;7.68;;;;;;;;;;10342668;28;20072;-80
2021/11/17 07:17:56;;;;;;;13.48;7.25;;;;;;;;;;10344447;28;20521;-78
2021/11/17 07:22:56;;;;;;;14.93;7.75;;;;;;;;;;10343745;28;20076;-77
2021/11/17 07:27:57;;;;;;;18.83;8.20;;;;;;;;;;10344402;28;20086;-77
2021/11/17 07:32:58;;;;;;;15.93;7.85;;;;;;;;;;10339586;28;20034;-77
2021/11/17 07:38:02;;;;;;;16.92;8.00;;;;;;;;;;10340671;28;20043;-78
2021/11/17 07:43:05;;;;;;;14.45;8.07;;;;;;;;;;10339379;28;20077;-77
2021/11/17 07:48:06;;;;;;;20.90;7.68;;;;;;;;;;10339244;28;20030;-77
2021/11/17 07:53:09;;;;;;;12.57;7.47;;;;;;;;;;10339315;28;20077;-78
2021/11/17 07:58:09;;;;;;;12.38;7.30;;;;;;;;;;10339950;28;20421;-78
2021/11/17 08:03:10;;;;;;;16.77;8.00;;;;;;;;;;10339826;28;20110;-78
2021/11/17 08:08:10;;;;;;;14.40;8.20;;;;;;;;;;10371167;28;20022;-76
2021/11/17 08:13:11;;;;;;;10.33;7.63;;;;;;;;;;10339903;28;20053;-78
2021/11/17 08:18:11;;;;;;;19.42;8.02;;;;;;;;;;10339136;28;20488;-76
2021/11/17 08:23:12;;;;;;;10.63;7.18;;;;;;;;;;10338506;28;20081;-78
2021/11/17 08:28:13;;;;;;;12.57;8.00;;;;;;;;;;10338435;28;20053;-77
2021/11/17 08:33:15;;;;;;;10.95;7.07;;;;;;;;;;10338619;28;20053;-77
2021/11/17 08:38:21;;;;;;;15.45;8.07;;;;;;;;;;10337890;28;20485;-76
2021/11/17 08:43:22;;;;;;;13.73;7.70;;;;;;;;;;10337712;28;20034;-76
2021/11/17 08:48:27;;;;;;;9.48;7.63;;;;;;;;;;10338244;28;20026;-79
2021/11/17 08:53:31;;;;;;;11.20;8.02;;;;;;;;;;10338227;28;20030;-77
2021/11/17 08:58:32;;;;;;;13.25;7.93;;;;;;;;;;10337741;28;20418;-77
2021/11/17 09:03:33;;;;;;;18.00;8.23;;;;;;;;;;10336659;28;20057;-77
2021/11/17 09:08:34;;;;;;;12.80;8.02;;;;;;;;;;10337423;28;20041;-76
2021/11/17 09:13:35;;;;;;;12.52;7.55;;;;;;;;;;10336834;28;20442;-76
2021/11/17 09:18:40;;;;;;;11.23;7.28;;;;;;;;;;10336385;28;20117;-77
2021/11/17 09:23:43;;;;;;;11.07;8.15;;;;;;;;;;10338884;28;20093;-76
2021/11/17 09:28:43;;;;;;;9.88;7.43;;;;;;;;;;10335808;28;20046;-77
2021/11/17 09:33:46;;;;;;;15.38;7.90;;;;;;;;;;10336391;28;20458;-76
2021/11/17 09:38:51;;;;;;;15.48;8.32;;;;;;;;;;10336078;28;20084;-77
2021/11/17 09:43:55;;;;;;;11.40;7.30;;;;;;;;;;10336755;28;20030;-77
2021/11/17 09:49:02;;;;;;;14.30;8.75;;;;;;;;;;10335112;28;20072;-76
2021/11/17 09:54:05;;;;;;;11.90;7.97;;;;;;;;;;10334328;28;20080;-76
2021/11/17 09:59:11;;;;;;;11.35;8.52;;;;;;;;;;10336191;28;20026;-77
2021/11/17 10:04:21;;;;;;;9.43;7.85;;;;;;;;;;10333862;28;20030;-77
2021/11/17 10:15:00;;;;;;;11.50;7.93;;;;;;;;;;10333145;28;20022;-76
2021/11/17 10:20:23;;;;;;;12.63;8.02;;;;;;;;;;10335511;28;20033;-77
2021/11/17 10:25:24;;;;;;;10.80;8.07;;;;;;;;;;10334677;28;20037;-77
2021/11/17 10:30:38;;;;;;;11.70;8.60;;;;;;;;;;10334698;28;20050;-77
2021/11/17 10:35:58;;;;;;;11.77;8.15;;;;;;;;;;10332299;28;20448;-76
2021/11/17 10:41:15;;;;;;;10.82;7.40;;;;;;;;;;10333474;28;20041;-77
2021/11/17 10:46:21;;;;;;;10.32;7.70;;;;;;;;;;10334552;28;20370;-77
2021/11/17 10:52:06;;;;;;;11.60;8.63;;;;;;;;;;10333010;28;20038;-78
2021/11/17 10:57:13;;;;;;;9.98;7.75;;;;;;;;;;10322692;28;20034;-76
2021/11/17 11:02:14;;;;;;;13.40;8.27;;;;;;;;;;10338769;28;20389;-77
2021/11/17 11:07:38;;;;;;;10.70;7.90;;;;;;;;;;10341582;28;20061;-77
2021/11/17 11:12:39;;;;;;;8.98;7.57;;;;;;;;;;10342713;28;20034;-78
2021/11/17 11:18:03;;;;;;;11.85;7.93;;;;;;;;;;10333829;28;20038;-78
2021/11/17 11:23:04;;;;;;;10.82;7.82;;;;;;;;;;10329559;28;20092;-78
2021/11/17 11:28:20;;;;;;;13.23;8.70;;;;;;;;;;10334785;28;20077;-77
2021/11/17 11:33:29;;;;;;;10.05;7.80;;;;;;;;;;10334980;28;20041;-77
2021/11/17 11:38:33;;;;;;;10.48;7.72;;;;;;;;;;10337377;28;20026;-79
2021/11/17 11:43:34;;;;;;;11.05;7.93;;;;;;;;;;10339085;28;20027;-79
2021/11/17 11:48:44;;;;;;;9.90;7.65;;;;;;;;;;10338413;28;20026;-79
2021/11/17 11:54:06;;;;;;;9.73;7.82;;;;;;;;;;10332368;28;20512;-79
2021/11/17 11:59:16;;;;;;;11.48;7.80;;;;;;;;;;10335503;28;20068;-79
2021/11/17 12:04:23;;;;;;;9.45;7.30;;;;;;;;;;10342915;28;20031;-79
2021/11/17 12:09:32;;;;;;;11.32;7.72;;;;;;;;;;10342814;28;20046;-79
2021/11/17 12:14:47;;;;;;;8.93;7.55;;;;;;;;;;10342585;28;20034;-78
2021/11/17 12:19:52;;;;;;;11.68;7.40;;;;;;;;;;10332283;28;20049;-78
2021/11/17 12:25:11;;;;;;;10.98;7.20;;;;;;;;;;10327214;28;20117;-78
2021/11/17 12:30:21;;;;;;;10.38;6.85;;;;;;;;;;10377201;23;20134;-86
2021/11/17 12:35:24;;;;;;;11.48;7.40;;;;;;;;;;10283088;28;20047;-85
2021/11/17 12:40:55;;;;;;;8.75;7.03;;;;;;;;;;10278870;28;20035;-86
2021/11/17 12:46:20;;;;;;;9.20;6.93;;;;;;;;;;10277217;28;20042;-86
2021/11/17 12:51:26;;;;;;;11.55;7.05;;;;;;;;;;10285705;28;20118;-85
2021/11/17 12:56:31;;;;;;;10.57;7.70;;;;;;;;;;10297466;28;20118;-87
2021/11/17 13:01:37;;;;;;;14.93;7.72;;;;;;;;;;10259808;28;20031;-87
2021/11/17 13:06:40;;;;;;;14.40;8.60;;;;;;;;;;10266290;28;20031;-88
2021/11/17 13:11:46;;;;;;;13.13;7.95;;;;;;;;;;10263990;28;20042;-88
2021/11/17 13:16:47;;;;;;;10.55;8.02;;;;;;;;;;10273929;28;20067;-86
2021/11/17 13:21:54;;;;;;;9.43;7.95;;;;;;;;;;10262826;28;20039;-87
2021/11/17 13:27:07;;;;;;;10.35;8.25;;;;;;;;;;10269512;28;20482;-86
2021/11/17 13:32:08;;;;;;;11.68;8.35;;;;;;;;;;10260522;28;20054;-87
2021/11/17 13:37:34;;;;;;;10.60;8.17;;;;;;;;;;10258535;28;20035;-87
2021/11/17 13:42:35;;;;;;;10.88;8.10;;;;;;;;;;10269791;28;20043;-86
2021/11/17 13:47:35;;;;;;;11.43;8.68;;;;;;;;;;10259776;28;20027;-87
2021/11/17 13:52:39;;;;;;;12.63;9.23;;;;;;;;;;10261400;28;20038;-87
2021/11/17 13:57:41;;;;;;;13.80;8.20;;;;;;;;;;10267751;28;20035;-87
2021/11/17 14:02:44;;;;;;;14.73;9.07;;;;;;;;;;10256368;28;20097;-87
2021/11/17 14:07:45;;;;;;;11.20;8.48;;;;;;;;;;10265427;28;20474;-87
2021/11/17 14:12:49;;;;;;;10.38;7.97;;;;;;;;;;10262329;28;20035;-87
2021/11/17 14:17:50;;;;;;;12.15;7.93;;;;;;;;;;10272995;28;20035;-87
2021/11/17 14:22:51;;;;;;;10.52;8.27;;;;;;;;;;10255394;28;20379;-87
2021/11/17 14:27:58;;;;;;;13.07;8.35;;;;;;;;;;10264661;28;20105;-87
2021/11/17 14:32:59;;;;;;;10.50;7.88;;;;;;;;;;10283153;28;20035;-87
2021/11/17 14:38:01;;;;;;;8.45;7.28;;;;;;;;;;10279170;28;20046;-89
2021/11/17 14:43:02;;;;;;;9.45;7.43;;;;;;;;;;10290311;28;20042;-89
2021/11/17 14:48:02;;;;;;;10.45;7.65;;;;;;;;;;10286099;28;20053;-86
2021/11/17 14:53:03;;;;;;;8.93;7.35;;;;;;;;;;10285393;28;20483;-89
2021/11/17 14:58:03;;;;;;;11.52;7.43;;;;;;;;;;10261769;28;20101;-89
2021/11/17 15:03:04;;;;;;;8.45;7.18;;;;;;;;;;10284512;28;20162;-88
2021/11/17 15:08:05;;;;;;;8.32;7.20;;;;;;;;;;10277589;28;20118;-90
2021/11/17 15:13:06;;;;;;;9.43;7.20;;;;;;;;;;10290794;28;20127;-90
2021/11/17 15:18:07;;;;;;;9.40;7.05;;;;;;;;;;10291323;28;20031;-88
2021/11/17 15:23:08;;;;;;;10.45;7.35;;;;;;;;;;10263144;28;20054;-88
2021/11/17 15:28:12;;;;;;;9.75;7.30;;;;;;;;;;10266108;28;20443;-90
2021/11/17 15:33:13;;;;;;;8.82;6.78;;;;;;;;;;10281736;28;20082;-88
2021/11/17 15:38:15;;;;;;;9.50;6.40;;;;;;;;;;10290617;28;20114;-88
2021/11/17 15:43:16;;;;;;;9.93;6.70;;;;;;;;;;10280879;28;20035;-88
2021/11/17 15:48:17;;;;;;;10.05;6.80;;;;;;;;;;10279979;28;20049;-91
2021/11/17 15:53:18;;;;;;;9.73;6.97;;;;;;;;;;10274003;28;20027;-91
2021/11/17 15:58:20;;;;;;;8.98;6.63;;;;;;;;;;10262549;28;20031;-89
2021/11/17 16:03:20;;;;;;;11.30;7.43;;;;;;;;;;10267403;28;20526;-90
2021/11/17 16:08:21;;;;;;;10.18;7.38;;;;;;;;;;10262871;28;20122;-89
2021/11/17 16:13:22;;;;;;;9.73;6.82;;;;;;;;;;10292358;28;20027;-89
2021/11/17 16:18:22;;;;;;;12.90;7.30;;;;;;;;;;10296114;28;20125;-88
2021/11/17 16:28:34;;;;;;;10.70;7.80;;;;;;;;;;10309053;28;20086;-90
2021/11/17 16:33:34;;;;;;;9.63;6.87;;;;;;;;;;10265348;28;20035;-88
2021/11/17 16:38:37;;;;;;;11.65;7.75;;;;;;;;;;10267474;28;20031;-89
2021/11/17 16:43:38;;;;;;;12.18;7.05;;;;;;;;;;10271693;28;20034;-88
2021/11/17 16:48:38;;;;;;;12.00;6.90;;;;;;;;;;10275974;28;20036;-86
2021/11/17 16:53:39;;;;;;;12.35;6.93;;;;;;;;;;10261803;28;20038;-87
2021/11/17 16:58:41;;;;;;;14.02;7.38;;;;;;;;;;10258075;28;20094;-85
2021/11/17 17:03:44;;;;;;;10.93;6.53;;;;;;;;;;10273571;28;20035;-86
2021/11/17 17:08:45;;;;;;;9.85;7.18;;;;;;;;;;10292470;28;20035;-86
2021/11/17 17:13:45;;;;;;;9.68;7.18;;;;;;;;;;10294607;28;20031;-86
2021/11/17 17:18:45;;;;;;;10.40;6.90;;;;;;;;;;10276786;28;20353;-87
2021/11/17 17:23:46;;;;;;;10.00;7.18;;;;;;;;;;10285626;28;20043;-86
2021/11/17 17:28:46;;;;;;;10.40;7.27;;;;;;;;;;10282392;28;20047;-86
2021/11/17 17:33:49;;;;;;;8.70;6.33;;;;;;;;;;10254740;28;20479;-87
2021/11/17 17:38:49;;;;;;;9.60;7.43;;;;;;;;;;10271870;28;20925;-87
2021/11/17 17:43:50;;;;;;;9.40;6.70;;;;;;;;;;10272847;28;20106;-89
2021/11/17 17:48:50;;;;;;;9.93;6.55;;;;;;;;;;10267586;28;21067;-88
2021/11/17 17:53:50;;;;;;;9.83;6.90;;;;;;;;;;10274840;28;20697;-89
2021/11/17 17:58:51;;;;;;;10.15;7.13;;;;;;;;;;10272223;28;20039;-89
2021/11/17 18:03:52;;;;;;;10.07;7.32;;;;;;;;;;10262517;28;20070;-90
2021/11/17 18:08:52;;;;;;;10.63;7.18;;;;;;;;;;10266454;28;20043;-89
2021/11/17 18:13:53;;;;;;;10.13;7.13;;;;;;;;;;10280363;28;20027;-89
2021/11/17 18:18:53;;;;;;;11.00;7.50;;;;;;;;;;10273440;28;20027;-90
2021/11/17 18:23:58;;;;;;;12.05;7.70;;;;;;;;;;10259303;28;20122;-89
2021/11/17 18:29:00;;;;;;;12.27;8.00;;;;;;;;;;10268805;28;20475;-87
2021/11/17 18:34:01;;;;;;;13.35;8.02;;;;;;;;;;10268301;28;20475;-87
2021/11/17 18:39:02;;;;;;;12.85;7.65;;;;;;;;;;10269705;28;20097;-88
2021/11/17 18:44:05;;;;;;;17.63;8.05;;;;;;;;;;10263822;28;20415;-86
2021/11/17 18:49:06;;;;;;;18.85;8.57;;;;;;;;;;10275751;28;20407;-86
2021/11/17 18:54:07;;;;;;;14.52;8.15;;;;;;;;;;10288434;28;20062;-86
2021/11/17 18:59:07;;;;;;;14.00;8.65;;;;;;;;;;10264056;28;20089;-86
2021/11/17 19:04:08;;;;;;;12.82;8.70;;;;;;;;;;10270872;28;20118;-87
2021/11/17 19:09:10;;;;;;;16.00;8.85;;;;;;;;;;10273732;28;20440;-87
2021/11/17 19:14:10;;;;;;;13.13;9.05;;;;;;;;;;10272269;28;20059;-86
2021/11/17 19:19:13;;;;;;;16.83;8.60;;;;;;;;;;10261841;28;20471;-87
2021/11/17 19:24:14;;;;;;;22.15;9.20;;;;;;;;;;10271947;28;20063;-86
2021/11/17 19:29:14;;;;;;;15.35;8.77;;;;;;;;;;10278749;28;20408;-86
2021/11/17 19:34:16;;;;;;;11.95;8.57;;;;;;;;;;10281994;28;20043;-86
2021/11/17 19:39:19;;;;;;;16.63;9.02;;;;;;;;;;10291078;28;20066;-87
2021/11/17 19:44:21;;;;;;;13.70;8.82;;;;;;;;;;10292260;28;20045;-86
2021/11/17 19:49:21;;;;;;;15.75;9.10;;;;;;;;;;10278325;28;20035;-86
2021/11/17 19:54:23;;;;;;;16.48;9.45;;;;;;;;;;10292497;28;20088;-86
2021/11/17 19:59:29;;;;;;;12.82;9.32;;;;;;;;;;10290633;28;21343;-87
2021/11/17 20:04:29;;;;;;;16.38;8.90;;;;;;;;;;10285521;28;20065;-87
2021/11/17 20:09:30;;;;;;;18.20;9.32;;;;;;;;;;10287846;28;20438;-86
2021/11/17 20:14:32;;;;;;;13.77;9.07;;;;;;;;;;10293056;28;20023;-86
2021/11/17 20:19:32;;;;;;;17.13;10.02;;;;;;;;;;10282993;28;21004;-86
2021/11/17 20:24:33;;;;;;;15.63;8.67;;;;;;;;;;10274098;28;20047;-87
2021/11/17 20:29:33;;;;;;;15.85;9.25;;;;;;;;;;10272284;28;20465;-86
2021/11/17 20:34:35;;;;;;;12.50;8.55;;;;;;;;;;10295340;28;20039;-86
2021/11/17 20:39:35;;;;;;;13.60;9.35;;;;;;;;;;10280413;28;20089;-87
2021/11/17 20:44:36;;;;;;;17.08;9.27;;;;;;;;;;10280767;28;20046;-85
2021/11/17 20:49:37;;;;;;;15.80;9.02;;;;;;;;;;10278853;28;20027;-87
2021/11/17 20:54:39;;;;;;;30.25;10.00;;;;;;;;;;10271789;28;20378;-89
2021/11/17 20:59:40;;;;;;;24.77;10.60;;;;;;;;;;10295139;28;20386;-89
2021/11/17 21:04:41;;;;;;;26.20;10.85;;;;;;;;;;10297426;28;20030;-89
2021/11/17 21:09:41;;;;;;;26.67;10.82;;;;;;;;;;10280829;28;20031;-89
2021/11/17 21:14:42;;;;;;;17.73;9.23;;;;;;;;;;10295149;28;20031;-86
2021/11/17 21:19:42;;;;;;;21.70;10.02;;;;;;;;;;10273538;28;20810;-89
2021/11/17 21:24:43;;;;;;;22.70;9.75;;;;;;;;;;10258694;28;20082;-89
2021/11/17 21:29:44;;;;;;;17.77;9.43;;;;;;;;;;10281035;28;20182;-88
2021/11/17 21:34:44;;;;;;;20.25;10.52;;;;;;;;;;10280034;28;20425;-88
2021/11/17 21:39:46;;;;;;;16.58;10.35;;;;;;;;;;10270324;28;20062;-89
2021/11/17 21:44:47;;;;;;;14.88;9.90;;;;;;;;;;10282403;28;20045;-89
2021/11/17 21:49:47;;;;;;;15.27;8.98;;;;;;;;;;10278835;28;20177;-88
2021/11/17 21:54:48;;;;;;;17.17;10.32;;;;;;;;;;10262382;28;20050;-89
2021/11/17 21:59:49;;;;;;;16.33;9.93;;;;;;;;;;10272829;28;20042;-89
2021/11/17 22:04:51;;;;;;;15.77;9.23;;;;;;;;;;10260934;28;20917;-88
2021/11/17 22:09:52;;;;;;;20.40;10.02;;;;;;;;;;10262634;28;20024;-90
2021/11/17 22:14:52;;;;;;;16.13;9.35;;;;;;;;;;10269718;28;20035;-86
